Center Barnstead, New Hampshire
Current Conditions -  °F | °C
As of 1:50 AM on Thursday 27 Nov 2014 (Local Time) from KCON Reporting Station
Haze Haze  
Wind Chill: 24°   Ceiling: NA
Heat Index: 32°   Visibility: 3mi
Dew Point: 31°   Wind: 10mph
Humidity: 96%   Direction: 330°NNW
Pressure: 29.76"   Gusts: NA
Location:  43.34°N, 71.26°W
Report Text: KCON 270650Z AUTO 33009KT 3SM BR 00/M01 A2976 RMK AO2 SNB24E43 SLP079 T00001006 PNO $
Loading
Personal Weather Stations






























Interactive Weather Map New forecast layout! Learn more

10-Day Weather Forecast

Advertisements
Track Severe Weather on mobile